This is the latest recevied weather packets stored in our database for station/object K7SKM. If no packets are shown the sender has not sent any weather packets the latest 10 day(s).
| Time | Temp. | Humidity | Pressure | Rain* | Wind** | Luminosity | Snow |
|---|---|---|---|---|---|---|---|
| 1777931584 | 27.22° C | 39% | 1014.7 hPa | 0 mm | - | 447 W/m² | - |
| 1777931280 | 27.78° C | 38% | 1014.7 hPa | 0 mm | - | 457 W/m² | - |
| 1777930976 | 27.78° C | 40% | 1014.8 hPa | 0 mm | - | 452 W/m² | - |
| 1777930673 | 26.67° C | 41% | 1014.7 hPa | 0 mm | - | 442 W/m² | - |
| 1777930369 | 25° C | 43% | 1014.6 hPa | 0 mm | - | 439 W/m² | - |
| 1777930067 | 26.11° C | 39% | 1014.9 hPa | 0 mm | - | 452 W/m² | - |
| 1777929763 | 27.22° C | 39% | 1014.9 hPa | 0 mm | - | 452 W/m² | - |
| 1777929461 | 27.78° C | 40% | 1014.7 hPa | 0 mm | - | 435 W/m² | - |
| 1777929156 | 26.67° C | 40% | 1014.8 hPa | 0 mm | - | 444 W/m² | - |
| 1777928854 | 26.11° C | 42% | 1014.9 hPa | 0 mm | - | 444 W/m² | - |
| 1777928551 | 26.67° C | 37% | 1014.8 hPa | 0 mm | - | 441 W/m² | - |
| 1777928248 | 26.11° C | 37% | 1014.9 hPa | 0 mm | - | 351 W/m² | - |
| 1777927946 | 26.67° C | 37% | 1015 hPa | 0 mm | - | 423 W/m² | - |
| 1777927644 | 26.67° C | 35% | 1014.9 hPa | 0 mm | - | 452 W/m² | - |
| 1777927342 | 27.22° C | 34% | 1014.8 hPa | 0 mm | - | 428 W/m² | - |
| 1777927041 | 26.67° C | 34% | 1015 hPa | 0 mm | - | 431 W/m² | - |
| 1777926738 | 26.11° C | 35% | 1015 hPa | 0 mm | - | 411 W/m² | - |
| 1777926438 | 25.56° C | 36% | 1015.2 hPa | 0 mm | - | 437 W/m² | - |
| 1777926135 | 26.67° C | 34% | 1015 hPa | 0 mm | - | 424 W/m² | - |
| 1777925832 | 27.22° C | 32% | 1015 hPa | 0 mm | - | 443 W/m² | - |
| 1777925530 | 26.67° C | 33% | 1015.2 hPa | 0 mm | - | 441 W/m² | - |
| 1777925227 | 26.11° C | 36% | 1015.2 hPa | 0 mm | - | 414 W/m² | - |
| 1777924923 | 27.22° C | 34% | 1015.2 hPa | 0 mm | - | 426 W/m² | - |
| 1777924619 | 26.67° C | 33% | 1015.2 hPa | 0 mm | - | 431 W/m² | - |
| 1777924315 | 26.11° C | 34% | 1015.2 hPa | 0 mm | - | 382 W/m² | - |
* Rain latest hour (hover to see other rain measurements)
** Current wind speed in m/s (hover to see current wind gust speed)